createdAt,value
2018-07-13T00:01:45.360Z,20.90
2018-07-13T00:04:13.911Z,26.67
2018-07-13T00:06:42.508Z,41.03
2018-07-13T00:09:12.440Z,21.70
2018-07-13T00:11:41.631Z,7.57
2018-07-13T00:14:20.364Z,6.63
2018-07-13T00:16:51.319Z,7.20
2018-07-13T00:19:20.671Z,5.77
2018-07-13T00:21:49.259Z,11.07
2018-07-13T00:24:17.837Z,7.10
2018-07-13T00:26:46.513Z,10.93
2018-07-13T00:29:15.051Z,7.80
2018-07-13T00:31:44.306Z,7.77
2018-07-13T00:34:12.863Z,7.07
2018-07-13T00:36:41.442Z,10.53
2018-07-13T00:39:12.202Z,26.17
2018-07-13T00:41:40.823Z,32.00
2018-07-13T00:44:09.794Z,35.57
2018-07-13T00:46:38.335Z,26.63
2018-07-13T00:49:06.761Z,11.30
2018-07-13T00:51:35.310Z,12.07
2018-07-13T00:54:03.858Z,13.97
2018-07-13T00:56:32.434Z,16.40
2018-07-13T00:59:01.209Z,13.27
2018-07-13T01:01:29.807Z,12.13
2018-07-13T01:03:58.339Z,13.60
2018-07-13T01:06:26.953Z,24.13
2018-07-13T01:08:56.467Z,10.37
2018-07-13T01:11:25.019Z,28.37
2018-07-13T01:13:53.553Z,17.83
2018-07-13T01:16:22.100Z,25.47
2018-07-13T01:18:50.666Z,13.73
2018-07-13T01:21:19.216Z,17.23
2018-07-13T01:23:47.760Z,16.53
2018-07-13T01:26:16.283Z,15.13
2018-07-13T01:28:44.837Z,15.20
2018-07-13T01:31:13.362Z,15.40
2018-07-13T01:33:41.916Z,12.23
2018-07-13T01:36:11.274Z,11.17
2018-07-13T01:38:39.811Z,25.37
2018-07-13T01:41:08.360Z,32.23
2018-07-13T01:43:36.894Z,31.93
2018-07-13T01:46:05.531Z,12.30
2018-07-13T01:48:34.067Z,17.87
2018-07-13T01:51:02.616Z,29.40
2018-07-13T01:53:31.273Z,45.23
2018-07-13T01:55:59.801Z,37.67
2018-07-13T01:58:28.371Z,49.10
2018-07-13T02:00:56.925Z,59.07
2018-07-13T02:03:25.470Z,72.17
2018-07-13T02:05:53.995Z,49.10
2018-07-13T02:08:22.558Z,36.90
2018-07-13T02:10:51.066Z,27.80
2018-07-13T02:13:19.618Z,12.90
2018-07-13T02:15:48.133Z,52.33
2018-07-13T02:18:16.682Z,33.50
2018-07-13T02:20:45.202Z,58.87
2018-07-13T02:23:13.772Z,27.47
2018-07-13T02:25:42.340Z,22.47
2018-07-13T02:28:10.550Z,22.23
2018-07-13T02:30:39.069Z,20.17
2018-07-13T02:33:07.641Z,18.87
2018-07-13T02:35:36.174Z,28.07
2018-07-13T02:38:04.753Z,53.87
2018-07-13T02:40:33.273Z,48.90
2018-07-13T02:43:01.815Z,29.13
2018-07-13T02:45:30.330Z,20.50
2018-07-13T02:47:58.859Z,22.73
2018-07-13T02:50:27.389Z,27.43
2018-07-13T02:52:55.947Z,22.87
2018-07-13T02:55:24.474Z,20.47
2018-07-13T02:57:53.035Z,16.10
2018-07-13T03:00:21.558Z,11.50
2018-07-13T03:02:50.129Z,12.07
2018-07-13T03:05:18.690Z,54.63
2018-07-13T03:07:47.273Z,14.37
2018-07-13T03:10:15.837Z,15.33
2018-07-13T03:12:44.471Z,12.53
2018-07-13T03:15:13.131Z,22.37
2018-07-13T03:17:41.650Z,15.80
2018-07-13T03:20:10.215Z,15.23
2018-07-13T03:22:39.119Z,9.50
2018-07-13T03:25:07.698Z,8.40
2018-07-13T03:27:36.229Z,11.50
2018-07-13T03:30:04.907Z,10.00
2018-07-13T03:32:33.422Z,9.10
2018-07-13T03:35:01.958Z,5.80
2018-07-13T03:37:30.491Z,8.43
2018-07-13T03:39:59.032Z,7.40
2018-07-13T03:42:27.587Z,7.70
2018-07-13T03:44:56.139Z,7.67
2018-07-13T03:47:24.686Z,7.60
2018-07-13T03:49:53.277Z,8.80
2018-07-13T03:52:21.793Z,6.97
2018-07-13T03:54:50.385Z,6.97
2018-07-13T03:57:19.497Z,16.20
2018-07-13T03:59:48.147Z,18.90
2018-07-13T04:02:16.718Z,27.13
2018-07-13T04:04:45.291Z,15.93
2018-07-13T04:07:13.910Z,15.03
2018-07-13T04:09:42.471Z,12.27
2018-07-13T04:12:11.015Z,10.30
2018-07-13T04:14:39.639Z,25.17
2018-07-13T04:17:08.190Z,14.10
2018-07-13T04:19:36.733Z,17.87
2018-07-13T04:22:05.541Z,48.60
2018-07-13T04:24:34.152Z,23.93
2018-07-13T04:27:02.795Z,42.90
2018-07-13T04:29:31.438Z,53.40
2018-07-13T04:31:59.959Z,77.47
2018-07-13T04:34:28.617Z,125.00
2018-07-13T04:36:57.194Z,84.10
2018-07-13T04:39:25.758Z,31.73
2018-07-13T04:41:54.396Z,20.77
2018-07-13T04:44:22.978Z,14.27
2018-07-13T04:46:51.603Z,16.20
2018-07-13T04:49:20.254Z,10.70
2018-07-13T04:51:48.940Z,9.83
2018-07-13T04:54:17.607Z,13.03
2018-07-13T04:56:46.274Z,21.20
2018-07-13T04:59:14.927Z,24.53
2018-07-13T05:01:43.584Z,13.93
2018-07-13T05:04:12.217Z,7.83
2018-07-13T05:06:40.886Z,12.87
2018-07-13T05:09:10.131Z,8.03
2018-07-13T05:11:39.045Z,8.10
2018-07-13T05:14:07.656Z,8.23
2018-07-13T05:16:36.289Z,9.73
2018-07-13T05:19:05.029Z,15.83
2018-07-13T05:21:34.265Z,17.27
2018-07-13T05:24:03.087Z,8.07
2018-07-13T05:26:31.789Z,9.23
2018-07-13T05:29:00.443Z,14.20
2018-07-13T05:31:29.091Z,8.10
2018-07-13T05:33:57.730Z,9.87
2018-07-13T05:36:26.378Z,7.30
2018-07-13T05:38:54.974Z,7.13
2018-07-13T05:41:23.283Z,8.60
2018-07-13T05:43:51.897Z,7.83
2018-07-13T05:46:20.517Z,8.07
2018-07-13T05:48:49.128Z,9.27
2018-07-13T05:51:17.782Z,10.47
2018-07-13T05:53:46.418Z,10.80
2018-07-13T05:56:15.506Z,9.87
2018-07-13T05:58:44.221Z,9.60
2018-07-13T06:01:12.830Z,49.37
2018-07-13T06:03:41.462Z,11.70
2018-07-13T06:06:10.187Z,10.57
2018-07-13T06:08:39.482Z,8.40
2018-07-13T06:11:08.189Z,15.50
2018-07-13T06:13:36.440Z,15.73
2018-07-13T06:16:05.018Z,12.33
2018-07-13T06:18:33.629Z,10.50
2018-07-13T06:21:02.225Z,16.87
2018-07-13T06:23:30.475Z,14.40
2018-07-13T06:25:59.049Z,9.70
2018-07-13T06:28:27.625Z,23.27
2018-07-13T06:30:56.200Z,12.77
2018-07-13T06:33:24.775Z,8.83
2018-07-13T06:35:53.312Z,21.87
2018-07-13T06:38:21.892Z,16.10
2018-07-13T06:40:51.595Z,7.57
2018-07-13T06:43:19.863Z,9.37
2018-07-13T06:45:48.416Z,9.98
2018-07-13T06:48:17.006Z,7.67
2018-07-13T06:50:45.640Z,9.03
2018-07-13T06:53:15.948Z,12.67
2018-07-13T06:55:44.839Z,9.37
2018-07-13T06:58:26.425Z,14.23
2018-07-13T07:01:08.380Z,11.73
2018-07-13T07:04:48.084Z,7.90
2018-07-13T07:07:24.903Z,9.77
2018-07-13T07:09:54.931Z,10.40
2018-07-13T07:14:34.940Z,6.40
2018-07-13T07:17:03.707Z,6.63
2018-07-13T07:19:32.287Z,7.43
2018-07-13T07:22:00.851Z,6.47
2018-07-13T07:24:29.488Z,8.07
2018-07-13T07:26:58.056Z,5.07
2018-07-13T07:29:26.678Z,8.87
2018-07-13T07:31:55.252Z,5.03
2018-07-13T07:34:23.802Z,6.30
2018-07-13T07:36:52.758Z,5.50
2018-07-13T07:39:21.306Z,5.53
2018-07-13T07:41:50.250Z,10.60
2018-07-13T07:44:18.962Z,4.43
2018-07-13T07:46:47.534Z,3.97
2018-07-13T07:49:16.081Z,4.30
2018-07-13T07:51:44.672Z,4.43
2018-07-13T07:54:13.287Z,6.83
2018-07-13T07:56:41.810Z,5.67
2018-07-13T07:59:10.369Z,5.70
2018-07-13T08:01:38.909Z,4.93
2018-07-13T08:04:07.518Z,4.40
2018-07-13T08:06:36.380Z,4.60
2018-07-13T08:09:05.403Z,6.47
2018-07-13T08:11:33.967Z,7.83
2018-07-13T08:14:02.612Z,4.43
2018-07-13T08:16:31.134Z,4.63
2018-07-13T08:18:59.780Z,5.13
2018-07-13T08:21:28.432Z,5.93
2018-07-13T08:23:57.095Z,4.57
2018-07-13T08:26:25.702Z,4.03
2018-07-13T08:28:54.339Z,5.40
2018-07-13T08:31:22.971Z,5.00
2018-07-13T08:33:51.485Z,5.23
2018-07-13T08:36:20.158Z,5.90
2018-07-13T08:38:48.700Z,4.40
2018-07-13T08:41:17.347Z,4.43
2018-07-13T08:43:45.947Z,3.17
2018-07-13T08:46:14.530Z,4.30
2018-07-13T08:48:43.143Z,4.47
2018-07-13T08:51:11.820Z,11.50
2018-07-13T08:53:40.330Z,4.90
2018-07-13T08:56:08.997Z,3.00
2018-07-13T08:58:38.477Z,6.47
2018-07-13T09:01:07.073Z,8.93
2018-07-13T09:03:35.732Z,5.40
2018-07-13T09:06:04.365Z,9.20
2018-07-13T09:08:33.037Z,3.50
2018-07-13T09:11:01.622Z,3.23
2018-07-13T09:13:30.248Z,3.10
2018-07-13T09:15:58.805Z,5.20
2018-07-13T09:18:27.379Z,3.97
2018-07-13T09:20:55.982Z,4.60
2018-07-13T09:23:24.544Z,3.33
2018-07-13T09:25:53.134Z,3.43
2018-07-13T09:28:21.788Z,18.37
2018-07-13T09:30:50.060Z,2.53
2018-07-13T09:33:19.192Z,5.10
2018-07-13T09:35:47.892Z,2.40
2018-07-13T09:38:16.664Z,3.87
2018-07-13T09:40:45.282Z,2.60
2018-07-13T09:43:13.897Z,2.43
2018-07-13T09:45:42.514Z,6.37
2018-07-13T09:48:11.058Z,3.00
2018-07-13T09:50:39.668Z,5.33
2018-07-13T09:53:08.305Z,2.60
2018-07-13T09:55:36.972Z,8.03
2018-07-13T09:58:05.571Z,8.37
2018-07-13T10:00:39.635Z,3.93
2018-07-13T10:03:08.148Z,3.50
2018-07-13T10:05:36.797Z,3.57
2018-07-13T10:08:05.510Z,5.67
2018-07-13T10:10:34.116Z,12.57
2018-07-13T10:13:02.829Z,6.13
2018-07-13T10:15:31.435Z,4.23
2018-07-13T10:17:59.719Z,3.77
2018-07-13T10:20:28.002Z,2.90
2018-07-13T10:22:56.250Z,2.93
2018-07-13T10:25:28.528Z,3.10
2018-07-13T10:27:57.462Z,3.60
2018-07-13T10:30:26.108Z,3.53
2018-07-13T10:32:54.749Z,2.80
2018-07-13T10:35:23.426Z,5.20
2018-07-13T10:37:51.944Z,4.90
2018-07-13T10:40:20.506Z,4.43
2018-07-13T10:42:49.179Z,2.53
2018-07-13T10:45:17.764Z,3.47
2018-07-13T10:47:46.380Z,2.57
2018-07-13T10:50:14.925Z,2.20
2018-07-13T10:52:43.475Z,2.63
2018-07-13T10:55:12.016Z,4.23
2018-07-13T10:57:40.633Z,7.53
2018-07-13T11:00:09.278Z,3.03
2018-07-13T11:02:37.845Z,3.03
2018-07-13T11:05:06.392Z,3.00
2018-07-13T11:07:34.942Z,3.57
2018-07-13T11:10:03.538Z,16.07
2018-07-13T11:12:32.153Z,4.30
2018-07-13T11:15:00.358Z,2.60
2018-07-13T11:17:28.937Z,3.22
2018-07-13T11:19:57.480Z,6.23
2018-07-13T11:22:26.003Z,8.87
2018-07-13T11:24:54.570Z,5.40
2018-07-13T11:27:23.295Z,2.77
2018-07-13T11:29:51.936Z,3.27
2018-07-13T11:32:20.495Z,38.97
2018-07-13T11:34:49.202Z,2.90
2018-07-13T11:37:17.837Z,2.93
2018-07-13T11:39:46.321Z,2.10
2018-07-13T11:42:14.904Z,2.80
2018-07-13T11:44:43.575Z,4.10
2018-07-13T11:47:12.106Z,2.90
2018-07-13T11:49:40.714Z,2.60
2018-07-13T11:52:09.276Z,2.53
2018-07-13T11:54:37.905Z,3.30
2018-07-13T11:57:10.611Z,1.93
2018-07-13T11:59:39.954Z,2.33
2018-07-13T12:02:08.505Z,2.37
2018-07-13T12:04:37.208Z,3.43
2018-07-13T12:07:06.687Z,2.60
2018-07-13T12:09:35.303Z,2.23
2018-07-13T12:12:03.884Z,2.30
2018-07-13T12:14:32.423Z,4.00
2018-07-13T12:17:01.130Z,6.23
2018-07-13T12:19:30.022Z,5.03
2018-07-13T12:21:59.140Z,2.60
2018-07-13T12:24:27.816Z,3.50
2018-07-13T12:26:56.379Z,7.63
2018-07-13T12:29:25.411Z,4.53
2018-07-13T12:31:54.030Z,4.20
2018-07-13T12:34:22.583Z,6.53
2018-07-13T12:36:51.188Z,2.27
2018-07-13T12:39:19.900Z,5.03
2018-07-13T12:41:48.486Z,3.40
2018-07-13T12:44:17.148Z,2.37
2018-07-13T12:46:45.729Z,5.47
2018-07-13T12:49:14.669Z,4.73
2018-07-13T12:51:44.110Z,2.77
2018-07-13T12:54:13.644Z,7.20
2018-07-13T12:56:42.217Z,5.63
2018-07-13T12:59:10.784Z,2.77
2018-07-13T13:01:39.741Z,6.27
2018-07-13T13:04:08.306Z,3.00
2018-07-13T13:06:36.997Z,4.23
2018-07-13T13:09:06.004Z,5.43
2018-07-13T13:11:34.625Z,2.80
2018-07-13T13:14:03.698Z,3.30
2018-07-13T13:16:32.448Z,2.90
2018-07-13T13:19:00.969Z,6.10
2018-07-13T13:21:30.397Z,3.20
2018-07-13T13:23:58.953Z,2.83
2018-07-13T13:26:27.562Z,3.60
2018-07-13T13:28:56.112Z,2.43
2018-07-13T13:31:24.772Z,2.67
2018-07-13T13:33:53.320Z,2.80
2018-07-13T13:36:21.911Z,2.43
2018-07-13T13:38:50.430Z,4.30
2018-07-13T13:41:19.033Z,2.80
2018-07-13T13:43:47.559Z,4.97
2018-07-13T13:46:16.113Z,3.07
2018-07-13T13:48:44.651Z,7.70
2018-07-13T13:51:13.221Z,2.60
2018-07-13T13:53:41.862Z,2.03
2018-07-13T13:56:10.438Z,4.30
2018-07-13T13:58:38.985Z,4.77
2018-07-13T14:01:08.130Z,2.87
2018-07-13T14:03:37.242Z,3.43
2018-07-13T14:06:05.930Z,1.90
2018-07-13T14:08:34.467Z,7.10
2018-07-13T14:11:03.075Z,2.00
2018-07-13T14:13:31.599Z,4.63
2018-07-13T14:16:00.397Z,2.57
2018-07-13T14:18:28.662Z,2.67
2018-07-13T14:20:57.245Z,2.30
2018-07-13T14:23:25.917Z,2.10
2018-07-13T14:25:54.611Z,3.87
2018-07-13T14:28:23.242Z,3.00
2018-07-13T14:30:51.777Z,4.50
2018-07-13T14:33:20.330Z,2.90
2018-07-13T14:35:48.888Z,3.30
2018-07-13T14:38:17.570Z,5.53
2018-07-13T14:40:45.785Z,3.53
2018-07-13T14:43:14.417Z,7.10
2018-07-13T14:45:43.027Z,4.93
2018-07-13T14:48:11.601Z,2.10
2018-07-13T14:50:40.181Z,1.97
2018-07-13T14:53:08.746Z,14.47
2018-07-13T14:55:37.617Z,5.70
2018-07-13T14:58:06.232Z,2.60
2018-07-13T15:00:34.636Z,2.63
2018-07-13T15:03:03.261Z,3.90
2018-07-13T15:05:31.888Z,2.57
2018-07-13T15:08:00.583Z,2.00
2018-07-13T15:10:29.136Z,3.57
2018-07-13T15:12:57.504Z,2.50
2018-07-13T15:15:26.229Z,3.60
2018-07-13T15:17:55.050Z,2.40
2018-07-13T15:20:23.590Z,2.60
2018-07-13T15:22:51.844Z,3.70
2018-07-13T15:25:20.589Z,4.73
2018-07-13T15:27:49.209Z,3.40
2018-07-13T15:30:17.749Z,2.17
2018-07-13T15:32:46.445Z,2.93
2018-07-13T15:35:16.660Z,5.83
2018-07-13T15:37:45.717Z,3.07
2018-07-13T15:40:14.263Z,2.40
2018-07-13T15:42:42.837Z,2.27
2018-07-13T15:45:11.397Z,6.00
2018-07-13T15:47:39.632Z,3.83
2018-07-13T15:50:08.199Z,2.60
2018-07-13T15:52:36.752Z,2.53
2018-07-13T15:55:05.488Z,2.27
2018-07-13T15:57:34.050Z,2.43
2018-07-13T16:00:02.721Z,3.90
2018-07-13T16:02:31.417Z,3.77
2018-07-13T16:04:59.934Z,2.10
2018-07-13T16:07:29.032Z,2.40
2018-07-13T16:09:57.610Z,4.33
2018-07-13T16:12:26.238Z,3.50
2018-07-13T16:14:54.763Z,3.03
2018-07-13T16:17:23.395Z,2.30
2018-07-13T16:19:52.082Z,3.80
2018-07-13T16:22:20.701Z,3.10
2018-07-13T16:24:49.397Z,2.53
2018-07-13T16:27:17.978Z,3.50
2018-07-13T16:29:46.667Z,3.13
2018-07-13T16:32:15.355Z,2.37
2018-07-13T16:34:44.039Z,2.57
2018-07-13T16:37:12.649Z,3.83
2018-07-13T16:39:41.291Z,2.43
2018-07-13T16:42:09.855Z,2.27
2018-07-13T16:44:38.752Z,2.20
2018-07-13T16:47:07.000Z,3.30
2018-07-13T16:49:35.562Z,2.87
2018-07-13T16:52:04.094Z,2.80
2018-07-13T16:54:32.637Z,2.73
2018-07-13T16:57:01.222Z,2.97
2018-07-13T16:59:29.776Z,3.87
2018-07-13T17:01:58.387Z,5.23
2018-07-13T17:04:26.980Z,2.80
2018-07-13T17:06:55.524Z,2.60
2018-07-13T17:09:24.209Z,4.73
2018-07-13T17:11:53.197Z,2.60
2018-07-13T17:14:21.742Z,1.90
2018-07-13T17:16:50.452Z,2.20
2018-07-13T17:19:19.139Z,2.70
2018-07-13T17:21:49.003Z,6.40
2018-07-13T17:24:17.877Z,5.00
2018-07-13T17:26:46.586Z,2.97
2018-07-13T17:29:15.360Z,3.27
2018-07-13T17:31:43.906Z,2.40
2018-07-13T17:34:12.522Z,3.30
2018-07-13T17:36:41.209Z,2.30
2018-07-13T17:39:09.817Z,3.33
2018-07-13T17:41:38.569Z,4.03
2018-07-13T17:44:07.631Z,2.10
2018-07-13T17:46:35.829Z,3.07
2018-07-13T17:49:04.389Z,6.00
2018-07-13T17:51:32.918Z,3.27
2018-07-13T17:54:01.491Z,5.70
2018-07-13T17:56:30.285Z,2.57
2018-07-13T17:58:59.102Z,3.10
2018-07-13T18:01:27.654Z,2.47
2018-07-13T18:03:56.195Z,2.10
2018-07-13T18:06:25.146Z,9.50
2018-07-13T18:08:53.784Z,3.50
2018-07-13T18:11:22.310Z,8.20
2018-07-13T18:13:51.313Z,5.80
2018-07-13T18:16:19.855Z,2.33
2018-07-13T18:18:48.374Z,8.03
2018-07-13T18:21:16.955Z,3.97
2018-07-13T18:23:45.488Z,3.23
2018-07-13T18:26:14.023Z,5.70
2018-07-13T18:28:42.554Z,3.30
2018-07-13T18:31:11.254Z,11.63
2018-07-13T18:33:39.854Z,2.87
2018-07-13T18:36:08.415Z,2.47
2018-07-13T18:38:36.767Z,5.87
2018-07-13T18:41:05.529Z,4.27
2018-07-13T18:43:34.081Z,4.33
2018-07-13T18:46:02.699Z,3.97
2018-07-13T18:48:31.316Z,6.63
2018-07-13T18:50:59.860Z,3.27
2018-07-13T18:53:28.576Z,2.37
2018-07-13T18:55:57.155Z,4.60
2018-07-13T18:58:25.711Z,4.90
2018-07-13T19:00:54.254Z,3.50
2018-07-13T19:03:22.833Z,2.80
2018-07-13T19:05:51.407Z,3.80
2018-07-13T19:08:20.056Z,3.57
2018-07-13T19:10:48.614Z,3.40
2018-07-13T19:13:17.277Z,3.20
2018-07-13T19:15:46.648Z,3.20
2018-07-13T19:18:15.231Z,12.47
2018-07-13T19:20:43.799Z,4.37
2018-07-13T19:23:12.380Z,2.60
2018-07-13T19:25:41.290Z,8.23
2018-07-13T19:28:09.911Z,9.23
2018-07-13T19:30:38.584Z,9.70
2018-07-13T19:33:07.728Z,15.20
2018-07-13T19:35:36.310Z,11.30
2018-07-13T19:38:05.133Z,12.27
2018-07-13T19:40:33.703Z,7.43
2018-07-13T19:43:02.233Z,9.57
2018-07-13T19:45:31.004Z,9.07
2018-07-13T19:47:59.663Z,9.10
2018-07-13T19:50:28.377Z,12.60
2018-07-13T19:52:56.977Z,24.63
2018-07-13T19:55:25.575Z,15.80
2018-07-13T19:57:54.205Z,9.70
2018-07-13T20:00:22.803Z,9.10
2018-07-13T20:02:51.399Z,6.77
2018-07-13T20:05:20.073Z,8.50
2018-07-13T20:07:48.662Z,7.20
2018-07-13T20:10:17.223Z,9.27
2018-07-13T20:12:45.817Z,14.20
2018-07-13T20:15:15.193Z,17.80
2018-07-13T20:17:43.762Z,13.77
2018-07-13T20:20:12.307Z,15.37
2018-07-13T20:22:40.953Z,12.30
2018-07-13T20:25:09.506Z,9.27
2018-07-13T20:27:38.081Z,9.63
2018-07-13T20:30:07.440Z,16.03
2018-07-13T20:32:36.199Z,9.40
2018-07-13T20:35:04.839Z,12.37
2018-07-13T20:37:33.395Z,9.27
2018-07-13T20:40:02.036Z,13.37
2018-07-13T20:42:30.586Z,11.33
2018-07-13T20:44:59.217Z,14.93
2018-07-13T20:47:27.838Z,20.07
2018-07-13T20:49:56.314Z,27.10
2018-07-13T20:52:24.878Z,14.70
2018-07-13T20:54:53.399Z,12.83
2018-07-13T20:57:21.961Z,13.00
2018-07-13T20:59:50.523Z,9.83
2018-07-13T21:02:19.121Z,9.63
2018-07-13T21:04:47.654Z,8.70
2018-07-13T21:07:16.267Z,21.57
2018-07-13T21:09:44.812Z,27.53
2018-07-13T21:12:13.370Z,24.30
2018-07-13T21:14:41.898Z,22.27
2018-07-13T21:17:10.494Z,21.43
2018-07-13T21:19:39.285Z,22.77
2018-07-13T21:22:07.866Z,24.53
2018-07-13T21:24:36.432Z,21.30
2018-07-13T21:27:05.239Z,18.07
2018-07-13T21:29:33.823Z,15.70
2018-07-13T21:32:02.382Z,16.90
2018-07-13T21:34:30.914Z,16.17
2018-07-13T21:36:59.486Z,16.83
2018-07-13T21:39:28.042Z,39.20
2018-07-13T21:41:56.701Z,35.10
2018-07-13T21:44:25.313Z,19.37
2018-07-13T21:46:53.863Z,62.03
2018-07-13T21:49:22.511Z,29.60
2018-07-13T21:51:51.089Z,25.70
2018-07-13T21:54:19.624Z,19.17
2018-07-13T21:56:48.199Z,20.43
2018-07-13T21:59:16.806Z,16.67
2018-07-13T22:01:45.631Z,19.67
2018-07-13T22:04:14.173Z,13.87
2018-07-13T22:06:43.201Z,15.97
2018-07-13T22:09:11.726Z,9.63
2018-07-13T22:11:40.283Z,9.73
2018-07-13T22:14:09.060Z,7.23
2018-07-13T22:16:37.917Z,5.53
2018-07-13T22:19:06.588Z,8.70
2018-07-13T22:21:35.150Z,11.13
2018-07-13T22:24:03.720Z,7.10
2018-07-13T22:26:32.367Z,7.63
2018-07-13T22:29:00.949Z,10.57
2018-07-13T22:31:29.825Z,12.90
2018-07-13T22:33:58.383Z,22.80
2018-07-13T22:36:26.941Z,16.07
2018-07-13T22:38:55.493Z,19.33
2018-07-13T22:41:24.002Z,13.80
2018-07-13T22:43:52.572Z,23.13
2018-07-13T22:46:21.134Z,20.43
2018-07-13T22:48:49.691Z,21.40
2018-07-13T22:51:18.213Z,19.83
2018-07-13T22:53:46.781Z,24.80
2018-07-13T22:56:15.337Z,19.00
2018-07-13T22:58:43.935Z,16.53
2018-07-13T23:01:12.462Z,12.07
2018-07-13T23:03:41.001Z,13.33
2018-07-13T23:06:09.535Z,20.83
2018-07-13T23:08:38.191Z,16.37
2018-07-13T23:11:07.039Z,14.80
2018-07-13T23:13:35.597Z,15.17
2018-07-13T23:16:04.208Z,12.93
2018-07-13T23:18:32.758Z,9.77
2018-07-13T23:21:01.328Z,12.10
2018-07-13T23:23:29.881Z,10.80
2018-07-13T23:25:58.432Z,12.30
2018-07-13T23:28:26.978Z,19.67
2018-07-13T23:30:55.496Z,16.67
2018-07-13T23:33:24.167Z,19.03
2018-07-13T23:35:52.391Z,17.60
2018-07-13T23:38:20.941Z,23.43
2018-07-13T23:40:49.492Z,28.70
2018-07-13T23:43:18.057Z,23.73
2018-07-13T23:45:46.625Z,31.27
2018-07-13T23:48:15.273Z,59.43
2018-07-13T23:50:43.836Z,20.43
2018-07-13T23:53:12.402Z,13.30
2018-07-13T23:55:40.940Z,15.30
2018-07-13T23:58:09.517Z,17.87
